Yuma MCAS/Yuma International Airport
KNYL : now visible

Airfield :











YOU CAN JOIN US ON...

 
LOGIN :

Register | Disclaimer

   EN    FR    IT 

 









Legend :    VFR   Marginal VFR   IFR   Intensive IFR   Very Intensive IFR
Visi :
Ceiling :
>= 8 km
>= 3000ft
5 to 8 km
1000 to 3000 ft
1500m to 5 km
500 to 1000 ft
800 to 1500m
200 to 500 ft
< 800m
< 200 ft
Symbols :   Thunderstorms  Fog  Heavy snow  Heavy precipitations  Wind > 20 kt






- Airport Elevation : 213 ft
- IATA code : YUM


KNYL - Yuma MCAS/Yuma International

CURRENT METAR :
  • 021457Z 03005KT 7SM CLR 08/M06 A3030 RMK AO2 SLP259 T00781056 53018

EXPIRED METARs :
  • 021357Z 03003KT 7SM CLR 07/M07 A3027 RMK AO2 SLP250 FIRST T00671072
  • 021257Z AUTO 02006KT 10SM CLR 09/M08 A3026 RMK AO2 SLP245 T00891083

TAF TAF KNYL
Valid from the 02 at 09:00 until the 03 at 09:00 UTC


0209/0309 01005KT 9999 SKC QNH3019INS
FM021700 02008KT 9999 FEW250 QNH3030INS
BECMG 0220/0222 36005KT 9999 SCT250 QNH3023INS AUTOMATED SENSOR METWATCH 0206 TIL 0214 T06/0214Z T20/0223Z
KZLA FIR / North America



MET'MAP, your aeronautical weather chart ! - Copyright ORBIFLY December 2007 - Disclaimer

ORBIFLY MET'MAP TEAM :

Programming & Development : Alexandra Zaïnal
Original concept : Baudouin d'Aumeries
Technical & hardware support : Manuel Goepfert
Assistance : Marc-Olivier Méhu




SOURCES & CREDITS :

   NOAA       Earth
Advisory